Time;durP1;ratioP1;P1;durP2;ratioP2;P2;SDS_P1;SDS_P2;PMS_P1;PMS_P2;Temp;Humidity;BMP_temperature;BMP_pressure;BME280_temperature;BME280_humidity;BME280_pressure;Samples;Min_cycle;Max_cycle;Signal;HPM_P1;HPM_P2
2023/03/14 00:00:16;;;;;;;1.58;0.62;;;14.80;73.20;;;;;;2288011;55;20915;-68
2023/03/14 00:02:44;;;;;;;0.95;0.50;;;14.80;73.10;;;;;;2522346;54;20926;-71
2023/03/14 00:05:10;;;;;;;1.55;0.43;;;14.80;73.10;;;;;;2522953;54;21097;-70
2023/03/14 00:07:37;;;;;;;1.40;0.45;;;14.80;73.00;;;;;;2287959;55;21062;-70
2023/03/14 00:10:08;;;;;;;1.10;0.50;;;14.80;73.00;;;;;;2291201;55;21006;-70
2023/03/14 00:12:34;;;;;;;0.80;0.40;;;14.80;72.90;;;;;;2520237;54;20994;-68
2023/03/14 00:15:03;;;;;;;2.05;0.55;;;14.90;73.00;;;;;;2287988;55;20974;-69
2023/03/14 00:17:31;;;;;;;2.33;0.60;;;14.80;72.80;;;;;;2287422;55;21429;-68
2023/03/14 00:20:03;;;;;;;1.37;0.43;;;14.80;72.80;;;;;;2288540;55;21268;-68
2023/03/14 00:22:36;;;;;;;2.53;0.55;;;14.70;72.60;;;;;;2287367;55;21006;-67
2023/03/14 00:25:02;;;;;;;2.75;0.73;;;14.70;72.50;;;;;;2288409;55;20970;-68
2023/03/14 00:27:29;;;;;;;1.50;0.55;;;14.70;72.40;;;;;;2287934;55;21462;-67
2023/03/14 00:29:56;;;;;;;1.90;0.77;;;14.70;72.50;;;;;;2288705;55;21006;-68
2023/03/14 00:32:22;;;;;;;1.35;0.50;;;14.70;72.60;;;;;;2287877;55;20933;-68
2023/03/14 00:34:48;;;;;;;1.73;0.50;;;14.70;72.50;;;;;;2522946;54;20950;-69
2023/03/14 00:37:14;;;;;;;0.88;0.47;;;14.70;72.60;;;;;;2287723;55;20991;-66
2023/03/14 00:39:42;;;;;;;1.25;0.50;;;14.70;72.50;;;;;;2286568;55;21853;-71
2023/03/14 00:42:09;;;;;;;0.90;0.50;;;14.70;72.60;;;;;;2288741;55;21846;-68
2023/03/14 00:44:35;;;;;;;1.27;0.50;;;14.70;72.60;;;;;;2522755;54;20930;-68
2023/03/14 00:47:02;;;;;;;1.20;0.40;;;14.70;72.60;;;;;;2288760;55;20937;-67
2023/03/14 00:49:28;;;;;;;1.60;0.60;;;14.60;72.40;;;;;;2287318;55;21856;-68
2023/03/14 00:51:55;;;;;;;1.50;0.50;;;14.70;72.60;;;;;;2286963;55;21013;-68
2023/03/14 00:54:21;;;;;;;1.65;0.43;;;14.60;72.50;;;;;;2286457;55;21103;-68
2023/03/14 00:56:48;;;;;;;0.70;0.40;;;14.60;72.50;;;;;;2522940;54;20962;-70
2023/03/14 00:59:15;;;;;;;1.75;0.40;;;14.60;72.50;;;;;;2523397;54;20918;-70
2023/03/14 01:01:41;;;;;;;1.35;0.43;;;14.60;72.50;;;;;;2288124;55;20942;-68
2023/03/14 01:04:08;;;;;;;1.42;0.60;;;14.60;72.50;;;;;;2288428;55;20942;-68
2023/03/14 01:06:34;;;;;;;2.65;0.50;;;14.60;72.60;;;;;;2288004;55;21006;-68
2023/03/14 01:09:00;;;;;;;1.05;0.40;;;14.60;72.60;;;;;;2288465;55;21019;-69
2023/03/14 01:11:29;;;;;;;1.80;0.50;;;14.60;72.60;;;;;;2522632;54;20991;-68
2023/03/14 01:13:58;;;;;;;1.50;0.40;;;14.50;72.50;;;;;;2522878;54;20942;-69
2023/03/14 01:16:27;;;;;;;1.65;0.50;;;14.50;72.50;;;;;;2288120;55;20945;-69
2023/03/14 01:18:54;;;;;;;1.40;0.50;;;14.50;72.50;;;;;;2288134;55;21065;-69
2023/03/14 01:21:24;;;;;;;1.60;0.52;;;14.50;72.40;;;;;;2290078;55;21850;-67
2023/03/14 01:23:51;;;;;;;1.33;0.47;;;14.50;72.40;;;;;;2284140;55;21931;-68
2023/03/14 01:26:19;;;;;;;3.08;0.70;;;14.50;72.50;;;;;;2523078;54;21005;-70
2023/03/14 01:28:45;;;;;;;1.92;0.50;;;14.50;72.50;;;;;;2283742;55;21792;-69
2023/03/14 01:31:12;;;;;;;1.67;0.60;;;14.50;72.50;;;;;;2522009;54;21448;-67
2023/03/14 01:33:38;;;;;;;0.90;0.40;;;14.50;72.60;;;;;;2286974;55;20962;-69
2023/03/14 01:36:06;;;;;;;0.95;0.47;;;14.50;72.50;;;;;;2522955;54;20941;-67
2023/03/14 01:38:34;;;;;;;2.72;0.55;;;14.50;72.40;;;;;;2291042;55;21029;-67
2023/03/14 01:41:00;;;;;;;2.85;0.52;;;14.50;72.40;;;;;;2515621;54;21001;-69
2023/03/14 01:43:27;;;;;;;2.28;0.60;;;14.40;72.30;;;;;;2286648;55;21031;-67
2023/03/14 01:47:45;;;;;;;2.40;0.60;;;14.50;72.20;;;;;;2285949;55;22034;-68
2023/03/14 01:50:11;;;;;;;3.92;0.80;;;14.40;70.50;;;;;;2288274;55;21573;-70
2023/03/14 01:52:45;;;;;;;2.83;0.60;;;14.40;71.90;;;;;;2522268;54;20986;-71
2023/03/14 01:55:15;;;;;;;2.03;0.60;;;14.40;71.50;;;;;;2522633;54;20970;-70
2023/03/14 01:57:50;;;;;;;1.48;0.52;;;14.40;71.80;;;;;;2287397;55;21682;-68
2023/03/14 02:00:19;;;;;;;1.77;0.52;;;14.40;71.80;;;;;;2287564;55;21001;-67
2023/03/14 02:02:50;;;;;;;2.12;0.50;;;14.40;71.80;;;;;;2287087;55;21877;-71
2023/03/14 02:05:19;;;;;;;1.90;0.50;;;14.40;71.90;;;;;;2287747;55;21055;-71
2023/03/14 02:07:51;;;;;;;1.98;0.73;;;14.30;71.70;;;;;;2286568;55;20989;-71
2023/03/14 02:10:21;;;;;;;5.05;0.88;;;14.30;71.40;;;;;;2289323;55;20948;-69
2023/03/14 02:12:48;;;;;;;1.37;0.68;;;14.30;71.60;;;;;;2287715;55;21619;-67
2023/03/14 02:15:14;;;;;;;3.12;0.57;;;14.30;71.60;;;;;;2516612;54;21853;-69
2023/03/14 02:17:41;;;;;;;1.20;0.40;;;14.30;71.60;;;;;;2287737;55;20934;-70
2023/03/14 02:20:39;;;;;;;1.37;0.50;;;14.20;71.50;;;;;;2288512;55;21545;-70
2023/03/14 02:23:06;;;;;;;1.42;0.50;;;14.20;70.80;;;;;;2288874;55;21858;-67
2023/03/14 02:26:10;;;;;;;1.35;0.55;;;14.20;71.50;;;;;;2290917;55;20953;-70
2023/03/14 02:28:37;;;;;;;4.40;1.10;;;14.20;70.30;;;;;;2516577;54;21021;-69
2023/03/14 02:31:03;;;;;;;2.05;0.52;;;14.20;71.40;;;;;;2521188;54;21049;-71
2023/03/14 02:33:30;;;;;;;1.67;0.50;;;14.20;71.40;;;;;;2286521;55;20949;-69
2023/03/14 02:36:05;;;;;;;2.30;0.47;;;14.20;71.50;;;;;;2520993;54;21615;-71
2023/03/14 02:38:47;;;;;;;1.92;0.60;;;14.20;71.10;;;;;;2286407;55;20977;-71
2023/03/14 02:41:13;;;;;;;3.00;0.70;;;14.10;70.80;;;;;;2286813;55;20990;-68
2023/03/14 02:43:39;;;;;;;0.80;0.40;;;14.20;71.40;;;;;;2286164;55;20966;-70
2023/03/14 02:46:07;;;;;;;3.28;0.50;;;14.00;71.20;;;;;;2287326;55;21350;-68
2023/03/14 02:48:35;;;;;;;1.92;0.60;;;14.10;71.40;;;;;;2286355;55;20965;-68
2023/03/14 02:51:02;;;;;;;3.05;0.57;;;14.10;71.30;;;;;;2286635;55;21001;-71
2023/03/14 02:53:31;;;;;;;2.87;0.60;;;14.10;71.30;;;;;;2520845;54;20993;-69
2023/03/14 02:55:57;;;;;;;4.07;0.80;;;14.10;71.10;;;;;;2521172;54;21017;-67
2023/03/14 02:58:24;;;;;;;2.67;0.75;;;14.10;71.20;;;;;;2520901;54;20991;-68
2023/03/14 03:00:51;;;;;;;1.70;0.50;;;14.10;71.10;;;;;;2286615;55;20994;-70
2023/03/14 03:03:17;;;;;;;2.08;0.50;;;14.10;71.30;;;;;;2286559;55;21349;-71
2023/03/14 03:05:50;;;;;;;2.42;0.68;;;14.10;71.30;;;;;;2286969;55;21490;-71
2023/03/14 03:08:16;;;;;;;1.77;0.62;;;14.10;71.30;;;;;;2521381;54;21609;-69
2023/03/14 03:10:43;;;;;;;1.70;0.65;;;14.10;71.30;;;;;;2286675;55;21423;-70
2023/03/14 03:13:11;;;;;;;4.70;0.80;;;14.10;71.10;;;;;;2287170;55;20978;-67
2023/03/14 03:15:37;;;;;;;2.78;0.82;;;14.10;71.10;;;;;;2285769;55;20954;-68
2023/03/14 03:18:05;;;;;;;4.47;0.68;;;14.10;71.20;;;;;;2521037;54;21078;-69
2023/03/14 03:20:31;;;;;;;3.75;0.60;;;14.10;71.10;;;;;;2283528;55;21848;-69
2023/03/14 03:22:58;;;;;;;3.75;0.80;;;14.10;71.10;;;;;;2521138;54;21022;-69
2023/03/14 03:25:27;;;;;;;3.22;0.60;;;14.10;71.00;;;;;;2515939;54;20971;-70
2023/03/14 03:27:55;;;;;;;3.33;0.62;;;14.10;71.10;;;;;;2519424;54;20985;-69
2023/03/14 03:30:22;;;;;;;2.22;0.90;;;14.10;71.00;;;;;;2289536;55;21037;-69
2023/03/14 03:32:51;;;;;;;2.37;0.60;;;14.10;71.00;;;;;;2287951;55;21083;-70
2023/03/14 03:35:18;;;;;;;2.30;0.60;;;14.10;71.00;;;;;;2287774;55;21814;-67
2023/03/14 03:37:46;;;;;;;2.53;0.50;;;14.10;71.00;;;;;;2522341;54;20946;-67
2023/03/14 03:40:13;;;;;;;3.67;1.00;;;14.00;70.90;;;;;;2285567;55;20968;-69
2023/03/14 03:42:39;;;;;;;3.00;0.95;;;14.10;70.90;;;;;;2287070;55;21579;-69
2023/03/14 03:45:06;;;;;;;2.60;0.60;;;14.10;71.00;;;;;;2287850;55;21789;-69
2023/03/14 03:47:32;;;;;;;4.50;0.62;;;14.10;70.90;;;;;;2521438;54;20941;-70
2023/03/14 03:49:59;;;;;;;3.20;0.90;;;14.10;70.90;;;;;;2522151;54;21118;-67
2023/03/14 03:52:25;;;;;;;1.75;0.55;;;14.10;70.90;;;;;;2287581;55;21329;-69
2023/03/14 03:54:51;;;;;;;1.77;0.47;;;14.00;70.80;;;;;;2288249;55;21097;-69
2023/03/14 03:57:18;;;;;;;1.95;0.47;;;14.10;70.90;;;;;;2287520;55;21013;-67
2023/03/14 03:59:44;;;;;;;3.05;0.68;;;14.10;71.00;;;;;;2287947;55;20934;-69
2023/03/14 04:02:10;;;;;;;4.70;0.85;;;14.00;70.80;;;;;;2523400;54;21021;-68
2023/03/14 04:04:38;;;;;;;3.30;0.70;;;14.00;70.80;;;;;;2287310;55;20921;-70
2023/03/14 04:07:07;;;;;;;5.37;0.77;;;14.00;70.60;;;;;;2288519;55;21005;-67
2023/03/14 04:09:33;;;;;;;3.87;0.70;;;14.00;70.70;;;;;;2288166;55;21818;-69
2023/03/14 04:12:00;;;;;;;5.12;0.70;;;14.00;70.50;;;;;;2522828;54;20946;-66
2023/03/14 04:14:26;;;;;;;3.75;0.90;;;14.00;70.30;;;;;;2522095;54;21021;-69
2023/03/14 04:16:53;;;;;;;3.37;0.57;;;14.10;70.20;;;;;;2285848;55;21582;-69
2023/03/14 04:19:20;;;;;;;1.55;0.50;;;14.00;70.30;;;;;;2288258;55;21022;-67
2023/03/14 04:21:46;;;;;;;3.55;0.60;;;14.00;70.50;;;;;;2522341;54;20934;-69
2023/03/14 04:24:13;;;;;;;1.98;0.45;;;14.00;70.40;;;;;;2522969;54;20946;-69
2023/03/14 04:26:39;;;;;;;1.85;0.52;;;14.00;70.20;;;;;;2276916;55;20966;-67
2023/03/14 04:29:05;;;;;;;4.55;0.65;;;14.00;70.30;;;;;;2506655;54;21033;-68
2023/03/14 04:31:32;;;;;;;2.83;0.60;;;14.00;70.30;;;;;;2506448;54;21030;-69
2023/03/14 04:33:58;;;;;;;1.98;0.65;;;14.00;70.30;;;;;;2273823;55;21562;-72
2023/03/14 04:36:24;;;;;;;1.98;0.50;;;14.00;70.50;;;;;;2273577;55;20962;-70
2023/03/14 04:38:51;;;;;;;2.80;0.60;;;14.00;70.40;;;;;;2273594;55;21108;-70
2023/03/14 04:41:17;;;;;;;3.00;0.93;;;14.00;70.30;;;;;;2273985;55;21768;-69
2023/03/14 04:43:46;;;;;;;2.47;0.60;;;14.00;70.10;;;;;;2506331;54;21001;-70
2023/03/14 04:46:13;;;;;;;2.72;0.60;;;14.00;70.10;;;;;;2506696;54;21096;-68
2023/03/14 04:48:39;;;;;;;3.30;0.40;;;14.00;70.20;;;;;;2273181;55;21017;-68
2023/03/14 04:51:06;;;;;;;1.92;0.62;;;14.00;70.30;;;;;;2506666;54;20966;-69
2023/03/14 04:53:32;;;;;;;3.33;0.52;;;14.00;70.30;;;;;;2507771;54;21072;-71
2023/03/14 04:55:59;;;;;;;2.08;0.40;;;14.00;70.30;;;;;;2506865;54;21005;-68
2023/03/14 04:58:25;;;;;;;2.70;0.60;;;14.00;70.30;;;;;;2506748;54;22320;-67
2023/03/14 05:00:51;;;;;;;3.55;0.70;;;14.00;70.20;;;;;;2274021;55;21474;-70
2023/03/14 05:03:18;;;;;;;3.03;0.55;;;14.00;70.10;;;;;;2271049;55;20960;-68
2023/03/14 05:05:44;;;;;;;1.67;0.40;;;14.00;70.00;;;;;;2273297;55;21245;-66
2023/03/14 05:08:10;;;;;;;2.10;0.65;;;14.00;70.00;;;;;;2274576;55;20981;-71
2023/03/14 05:10:37;;;;;;;3.92;0.70;;;14.00;70.00;;;;;;2272844;55;21413;-68
2023/03/14 05:13:03;;;;;;;3.58;0.70;;;14.00;70.00;;;;;;2273761;55;21089;-69
2023/03/14 05:15:29;;;;;;;1.98;0.45;;;14.00;70.10;;;;;;2273251;55;20985;-69
2023/03/14 05:17:56;;;;;;;2.83;0.50;;;14.00;70.00;;;;;;2506965;54;20942;-68
2023/03/14 05:20:22;;;;;;;2.17;0.50;;;14.00;69.90;;;;;;2273722;55;22043;-70
2023/03/14 05:22:48;;;;;;;2.83;0.60;;;14.00;70.10;;;;;;2506954;54;20950;-68
2023/03/14 05:25:15;;;;;;;3.10;0.50;;;14.00;70.10;;;;;;2506590;54;21489;-69
2023/03/14 05:27:41;;;;;;;1.52;0.40;;;14.00;70.10;;;;;;2506822;54;21001;-72
2023/03/14 05:30:08;;;;;;;2.90;0.60;;;14.00;69.90;;;;;;2506969;54;21018;-67
2023/03/14 05:32:34;;;;;;;3.70;0.50;;;14.00;70.00;;;;;;2506837;54;20946;-71
2023/03/14 05:35:01;;;;;;;2.30;0.40;;;14.00;70.00;;;;;;2273170;55;20962;-67
2023/03/14 05:37:28;;;;;;;1.37;0.57;;;14.00;70.20;;;;;;2273659;55;20969;-66
2023/03/14 05:39:54;;;;;;;1.10;0.45;;;14.00;70.40;;;;;;2506381;54;21109;-70
2023/03/14 05:42:21;;;;;;;2.70;0.75;;;14.00;70.40;;;;;;2273787;55;21120;-67
2023/03/14 05:44:47;;;;;;;2.10;0.50;;;14.00;70.50;;;;;;2273657;56;20950;-68
2023/03/14 05:47:13;;;;;;;1.10;0.40;;;14.10;70.50;;;;;;2507602;54;20954;-71
2023/03/14 05:49:40;;;;;;;1.52;0.57;;;14.10;70.40;;;;;;2507834;54;21454;-67
2023/03/14 05:52:07;;;;;;;1.92;0.50;;;14.10;70.60;;;;;;2512141;54;21105;-71
2023/03/14 05:54:37;;;;;;;1.45;0.45;;;14.10;70.60;;;;;;2277985;55;21014;-69
2023/03/14 05:57:03;;;;;;;1.35;0.40;;;14.10;70.50;;;;;;2280036;55;20989;-68
2023/03/14 05:59:30;;;;;;;1.17;0.40;;;14.10;70.60;;;;;;2512540;54;21001;-68
2023/03/14 06:01:57;;;;;;;1.65;0.35;;;14.10;70.60;;;;;;2507553;54;20993;-68
2023/03/14 06:04:24;;;;;;;1.40;0.30;;;14.10;70.60;;;;;;2512090;54;21013;-71
2023/03/14 06:06:54;;;;;;;2.35;0.50;;;14.10;70.50;;;;;;2278824;55;21008;-67
2023/03/14 06:09:23;;;;;;;1.58;0.40;;;14.20;70.50;;;;;;2279642;55;21484;-69
2023/03/14 06:11:49;;;;;;;2.35;0.30;;;14.20;70.50;;;;;;2512758;54;21006;-70
2023/03/14 06:14:16;;;;;;;1.12;0.35;;;14.20;70.50;;;;;;2512652;54;20993;-73
2023/03/14 06:16:43;;;;;;;1.37;0.40;;;14.20;70.50;;;;;;2505099;54;20992;-67
2023/03/14 06:19:11;;;;;;;1.02;0.40;;;14.20;70.50;;;;;;2279926;55;20973;-70
2023/03/14 06:21:37;;;;;;;1.85;0.45;;;14.20;70.50;;;;;;2278943;55;21002;-67
2023/03/14 06:24:04;;;;;;;2.12;0.60;;;14.20;70.50;;;;;;2279286;55;22036;-71
2023/03/14 06:26:30;;;;;;;1.58;0.60;;;14.20;70.60;;;;;;2512782;54;21110;-68
2023/03/14 06:29:03;;;;;;;2.97;0.60;;;14.20;70.50;;;;;;2512632;54;21041;-71
2023/03/14 06:31:30;;;;;;;;;;;14.30;70.40;;;;;;2283162;55;21040;-70
2023/03/14 06:33:56;;;;;;;2.20;0.57;;;14.30;68.90;;;;;;2512330;54;20069;-69
2023/03/14 06:36:22;;;;;;;2.72;0.60;;;14.30;70.50;;;;;;2279254;55;22146;-71
2023/03/14 06:38:50;;;;;;;1.30;0.45;;;14.30;70.60;;;;;;2279459;55;21017;-69
2023/03/14 06:41:16;;;;;;;1.92;0.52;;;14.30;70.60;;;;;;2277041;55;22032;-67
2023/03/14 06:43:42;;;;;;;0.93;0.40;;;14.30;70.70;;;;;;2278810;55;20957;-68
2023/03/14 06:46:09;;;;;;;1.67;0.50;;;14.30;70.70;;;;;;2513153;54;20997;-67
2023/03/14 06:48:35;;;;;;;1.05;0.47;;;14.30;70.60;;;;;;2278707;55;21033;-67
2023/03/14 06:51:03;;;;;;;1.35;0.50;;;14.30;70.70;;;;;;2512453;54;21016;-70
2023/03/14 06:53:29;;;;;;;2.83;0.80;;;14.40;70.70;;;;;;2512646;54;20966;-69
2023/03/14 06:55:56;;;;;;;2.55;0.80;;;14.30;70.30;;;;;;2279918;55;21010;-69
2023/03/14 06:58:22;;;;;;;2.62;0.52;;;14.40;70.50;;;;;;2511343;54;21954;-67
2023/03/14 07:00:48;;;;;;;4.37;0.70;;;14.40;70.60;;;;;;2273510;55;20986;-72
2023/03/14 07:03:15;;;;;;;2.45;0.75;;;14.40;70.50;;;;;;2278908;55;21792;-67
2023/03/14 07:05:44;;;;;;;3.35;0.80;;;14.40;70.50;;;;;;2512474;54;20956;-68
2023/03/14 07:08:11;;;;;;;2.80;0.57;;;14.40;70.60;;;;;;2280071;55;20954;-68
2023/03/14 07:10:37;;;;;;;1.73;0.50;;;14.50;70.70;;;;;;2278762;55;21002;-70
2023/03/14 07:13:03;;;;;;;2.22;0.60;;;14.50;70.70;;;;;;2512804;54;20975;-70
2023/03/14 07:15:30;;;;;;;2.92;0.55;;;14.50;70.70;;;;;;2278762;55;20954;-70
2023/03/14 07:17:56;;;;;;;3.53;0.57;;;14.50;70.80;;;;;;2279096;55;21085;-71
2023/03/14 07:20:23;;;;;;;3.17;0.50;;;14.60;71.00;;;;;;2279222;55;21668;-69
2023/03/14 07:22:49;;;;;;;2.33;0.40;;;14.60;70.90;;;;;;2286347;55;21935;-71
2023/03/14 07:25:16;;;;;;;2.53;0.50;;;14.70;71.00;;;;;;2274245;55;20989;-67
2023/03/14 07:27:47;;;;;;;2.05;0.55;;;14.70;71.00;;;;;;2512421;54;21286;-66
2023/03/14 07:30:14;;;;;;;1.53;0.50;;;14.70;70.70;;;;;;2512721;54;21493;-71
2023/03/14 07:32:40;;;;;;;1.55;0.52;;;14.70;70.80;;;;;;2279081;55;20962;-67
2023/03/14 07:35:07;;;;;;;2.87;0.50;;;14.80;71.00;;;;;;2278726;55;20972;-71
2023/03/14 07:37:33;;;;;;;1.58;0.50;;;14.80;70.70;;;;;;2280986;55;20954;-69
2023/03/14 07:40:03;;;;;;;2.25;0.50;;;14.80;70.70;;;;;;2274101;55;21013;-69
2023/03/14 07:42:36;;;;;;;1.15;0.40;;;14.80;70.50;;;;;;2512714;54;20993;-69
2023/03/14 07:45:02;;;;;;;1.80;0.50;;;14.80;70.60;;;;;;2512633;54;21013;-67
2023/03/14 07:47:31;;;;;;;2.20;0.57;;;14.90;70.80;;;;;;2279581;55;21025;-68
2023/03/14 07:49:57;;;;;;;1.98;0.60;;;14.90;70.50;;;;;;2278997;55;20985;-68
2023/03/14 07:52:24;;;;;;;1.52;0.60;;;14.90;70.50;;;;;;2278733;55;21064;-68
2023/03/14 07:54:50;;;;;;;2.30;0.70;;;15.00;70.50;;;;;;2278953;55;21089;-72
2023/03/14 07:57:17;;;;;;;1.05;0.40;;;15.00;70.50;;;;;;2512777;54;20996;-70
2023/03/14 07:59:43;;;;;;;1.52;0.50;;;15.00;70.50;;;;;;2512204;54;21065;-65
2023/03/14 08:02:16;;;;;;;1.58;0.50;;;15.00;70.30;;;;;;2513021;54;21096;-67
2023/03/14 08:04:42;;;;;;;1.15;0.32;;;15.00;69.70;;;;;;2281765;55;21065;-68
2023/03/14 08:07:08;;;;;;;3.22;0.60;;;15.00;70.10;;;;;;2512748;54;20982;-67
2023/03/14 08:09:35;;;;;;;2.50;0.40;;;15.10;70.30;;;;;;2513106;54;22043;-71
2023/03/14 08:12:01;;;;;;;0.77;0.30;;;15.10;70.30;;;;;;2512748;54;21527;-69
2023/03/14 08:14:28;;;;;;;1.40;0.40;;;15.10;70.20;;;;;;2512659;54;21368;-68
2023/03/14 08:16:56;;;;;;;1.30;0.30;;;15.10;69.90;;;;;;2512496;54;20954;-68
2023/03/14 08:19:22;;;;;;;1.17;0.30;;;15.10;69.80;;;;;;2282214;55;21081;-70
2023/03/14 08:21:48;;;;;;;1.73;0.40;;;15.20;70.00;;;;;;2508491;54;20966;-70
2023/03/14 08:24:15;;;;;;;0.62;0.30;;;15.20;69.90;;;;;;2511750;54;22073;-67
2023/03/14 08:26:41;;;;;;;0.68;0.30;;;15.20;69.70;;;;;;2511529;54;21023;-69
2023/03/14 08:29:10;;;;;;;1.95;0.60;;;15.20;69.60;;;;;;2274215;55;20978;-68
2023/03/14 08:31:36;;;;;;;2.15;0.50;;;15.20;69.30;;;;;;2279936;55;21094;-68
2023/03/14 08:34:02;;;;;;;1.20;0.52;;;15.20;69.50;;;;;;2504350;54;21080;-69
2023/03/14 08:36:29;;;;;;;3.03;0.57;;;15.20;69.40;;;;;;2279750;55;21682;-69
2023/03/14 08:38:57;;;;;;;2.20;0.70;;;15.20;69.30;;;;;;2275178;55;20953;-70
2023/03/14 08:41:24;;;;;;;1.37;0.50;;;15.20;69.20;;;;;;2279227;55;20961;-69
2023/03/14 08:43:53;;;;;;;1.65;0.32;;;15.20;69.10;;;;;;2278844;55;21374;-69
2023/03/14 08:46:23;;;;;;;1.75;0.40;;;15.20;69.40;;;;;;2512511;54;20981;-69
2023/03/14 08:48:49;;;;;;;1.70;0.40;;;15.20;69.30;;;;;;2511662;54;21029;-71
2023/03/14 08:51:17;;;;;;;1.98;0.30;;;15.30;69.50;;;;;;2279266;55;20955;-70
2023/03/14 08:53:44;;;;;;;1.87;0.35;;;15.20;69.20;;;;;;2276048;55;21038;-66
2023/03/14 08:56:12;;;;;;;0.37;0.20;;;15.30;69.30;;;;;;2279505;55;20953;-71
2023/03/14 08:59:01;;;;;;;1.15;0.40;;;15.30;69.40;;;;;;2280565;55;21586;-68
2023/03/14 09:01:30;;;;;;;2.37;0.52;;;15.30;68.40;;;;;;2506443;54;21137;-67
2023/03/14 09:03:57;;;;;;;1.12;0.40;;;15.30;69.50;;;;;;2511998;54;20945;-70
2023/03/14 09:06:24;;;;;;;0.90;0.35;;;15.30;69.50;;;;;;2512300;54;20946;-69
2023/03/14 09:08:51;;;;;;;1.33;0.40;;;15.30;69.70;;;;;;2280521;55;21013;-70
2023/03/14 09:11:18;;;;;;;1.58;0.50;;;15.30;69.80;;;;;;2279069;55;21029;-70
2023/03/14 09:13:44;;;;;;;1.52;0.35;;;15.30;69.50;;;;;;2282902;55;21010;-66
2023/03/14 09:16:12;;;;;;;1.00;0.37;;;15.40;69.70;;;;;;2512272;54;21077;-65
2023/03/14 09:18:38;;;;;;;1.05;0.40;;;15.40;69.40;;;;;;2512280;54;20974;-69
2023/03/14 09:21:06;;;;;;;0.80;0.30;;;15.40;69.50;;;;;;2512790;54;21890;-69
2023/03/14 09:23:32;;;;;;;1.67;0.50;;;15.40;69.60;;;;;;2279373;55;21081;-66
2023/03/14 09:26:04;;;;;;;1.12;0.40;;;15.40;69.70;;;;;;2276586;55;21060;-70
2023/03/14 09:28:31;;;;;;;1.62;0.47;;;15.50;69.80;;;;;;2512733;54;21020;-66
2023/03/14 09:30:57;;;;;;;0.70;0.30;;;15.50;69.80;;;;;;2279132;55;21001;-68
2023/03/14 09:33:25;;;;;;;1.00;0.30;;;15.50;69.20;;;;;;2278443;55;20983;-69
2023/03/14 09:35:51;;;;;;;1.27;0.30;;;15.50;69.60;;;;;;2510969;54;21689;-70
2023/03/14 09:38:20;;;;;;;0.40;0.20;;;15.60;69.60;;;;;;2279105;55;21081;-71
2023/03/14 09:40:47;;;;;;;0.85;0.40;;;15.60;69.70;;;;;;2279370;55;20958;-68
2023/03/14 09:43:13;;;;;;;0.85;0.30;;;15.60;69.60;;;;;;2278990;55;20953;-69
2023/03/14 09:45:42;;;;;;;0.68;0.40;;;15.60;69.30;;;;;;2279811;55;21091;-67
2023/03/14 09:48:16;;;;;;;1.23;0.40;;;15.60;69.00;;;;;;2276009;55;21644;-66
2023/03/14 09:50:44;;;;;;;2.15;0.70;;;15.60;68.60;;;;;;2511997;54;21002;-68
2023/03/14 09:53:18;;;;;;;1.23;0.40;;;15.60;69.00;;;;;;2512314;54;21025;-68
2023/03/14 09:55:48;;;;;;;1.85;0.40;;;15.70;68.50;;;;;;2280522;55;21108;-69
2023/03/14 09:58:18;;;;;;;2.17;0.70;;;15.60;68.90;;;;;;2278557;55;21423;-68
2023/03/14 10:00:44;;;;;;;1.48;0.40;;;15.40;68.60;;;;;;2352305;54;1680558;-67
2023/03/14 10:03:56;;;;;;;1.02;0.40;;;15.70;69.30;;;;;;2279076;55;21706;-69
2023/03/14 10:06:27;;;;;;;1.40;0.60;;;15.60;67.50;;;;;;2280579;55;20983;-67
2023/03/14 10:08:53;;;;;;;2.83;0.60;;;15.60;68.90;;;;;;2509275;54;21121;-67
2023/03/14 10:11:20;;;;;;;1.67;0.50;;;15.60;69.10;;;;;;2280242;55;20970;-67
2023/03/14 10:14:20;;;;;;;1.30;0.32;;;15.60;69.20;;;;;;2278846;55;21504;-67
2023/03/14 10:16:46;;;;;;;0.73;0.35;;;15.50;68.50;;;;;;2512633;54;21356;-68
2023/03/14 10:19:14;;;;;;;1.15;0.40;;;15.50;68.90;;;;;;2276732;55;21958;-69
2023/03/14 10:21:45;;;;;;;1.73;0.35;;;15.50;68.80;;;;;;2512690;54;21005;-67
2023/03/14 10:24:22;;;;;;;1.10;0.40;;;15.40;68.30;;;;;;2513095;54;20953;-69
2023/03/14 10:26:52;;;;;;;1.25;0.40;;;15.40;68.00;;;;;;2512360;54;21085;-68
2023/03/14 10:29:21;;;;;;;1.10;0.40;;;15.40;68.50;;;;;;2279837;55;21048;-67
2023/03/14 10:31:55;;;;;;;1.10;0.28;;;15.30;68.70;;;;;;2512670;54;20969;-69
2023/03/14 10:34:30;;;;;;;0.95;0.35;;;15.30;68.40;;;;;;2277608;55;20997;-71
2023/03/14 10:43:49;;;;;;;1.17;0.50;;;15.30;69.10;;;;;;2279472;55;21359;-67
2023/03/14 10:46:16;;;;;;;1.33;0.30;;;15.30;67.70;;;;;;2278975;55;20965;-71
2023/03/14 10:48:45;;;;;;;0.73;0.35;;;15.30;69.40;;;;;;2279428;55;20969;-68
2023/03/14 10:51:33;;;;;;;1.12;0.40;;;15.20;69.50;;;;;;2512620;54;20962;-69
2023/03/14 10:54:14;;;;;;;0.90;0.30;;;15.20;68.60;;;;;;2279072;55;20962;-67
2023/03/14 10:56:40;;;;;;;1.30;0.40;;;15.20;69.10;;;;;;2512687;54;20950;-68
2023/03/14 10:59:12;;;;;;;1.52;0.40;;;15.20;69.80;;;;;;2279523;55;21448;-69
2023/03/14 11:01:54;;;;;;;0.90;0.40;;;15.20;69.80;;;;;;2279469;55;20970;-70
2023/03/14 11:06:31;;;;;;;0.55;0.30;;;15.20;70.60;;;;;;2513282;54;22039;-67
2023/03/14 11:09:18;;;;;;;1.83;0.50;;;15.20;68.80;;;;;;2513861;54;20980;-66
2023/03/14 11:11:46;;;;;;;1.33;0.50;;;15.20;70.10;;;;;;2280819;55;21045;-67
2023/03/14 11:14:36;;;;;;;0.98;0.47;;;15.20;70.50;;;;;;2513444;54;20961;-67
2023/03/14 11:17:15;;;;;;;1.83;0.60;;;15.10;70.40;;;;;;2483850;55;20973;-71
2023/03/14 11:20:38;;;;;;;1.37;0.68;;;15.10;70.40;;;;;;2512353;54;20949;-70
2023/03/14 11:23:16;;;;;;;1.00;0.43;;;15.10;69.60;;;;;;2281215;55;20978;-67
2023/03/14 11:35:41;;;;;;;1.83;0.50;;;15.10;69.70;;;;;;2281283;55;20953;-66
2023/03/14 11:38:42;;;;;;;0.70;0.30;;;15.00;68.20;;;;;;2519815;54;20957;-66
2023/03/14 11:41:13;;;;;;;0.40;0.30;;;14.80;67.30;;;;;;2285688;55;20941;-67
2023/03/14 11:43:42;;;;;;;0.75;0.22;;;14.70;68.20;;;;;;2515758;54;21031;-66
2023/03/14 11:46:33;;;;;;;1.02;0.25;;;14.60;67.90;;;;;;2515642;54;21430;-69
2023/03/14 11:49:24;;;;;;;0.98;0.40;;;14.50;66.30;;;;;;2286354;55;20969;-68
2023/03/14 11:51:52;;;;;;;0.62;0.40;;;14.40;67.70;;;;;;2517297;54;20977;-69
2023/03/14 11:55:07;;;;;;;1.27;0.50;;;14.20;67.70;;;;;;2283457;55;21057;-67
2023/03/14 11:57:34;;;;;;;0.90;0.40;;;14.20;66.40;;;;;;2281857;55;21509;-69
2023/03/14 12:00:20;;;;;;;2.80;0.50;;;14.10;68.30;;;;;;2515155;54;20949;-71
2023/03/14 12:04:38;;;;;;;2.05;0.75;;;14.10;67.70;;;;;;2281965;55;21089;-69
2023/03/14 12:07:24;;;;;;;1.65;0.75;;;14.00;67.90;;;;;;2283493;55;22136;-73
2023/03/14 12:09:50;;;;;;;1.95;0.77;;;14.00;69.10;;;;;;2278717;55;21045;-70
2023/03/14 12:12:22;;;;;;;1.80;0.80;;;14.00;69.50;;;;;;2512188;54;20942;-70
2023/03/14 12:14:54;;;;;;;2.35;0.60;;;14.10;69.60;;;;;;2514496;54;21089;-70
2023/03/14 12:17:37;;;;;;;;;;;14.10;69.30;;;;;;2284149;55;21455;-69
2023/03/14 12:20:22;;;;;;;2.47;0.75;;;14.10;68.00;;;;;;2513255;54;20085;-69
2023/03/14 12:23:03;;;;;;;5.55;0.73;;;14.10;68.70;;;;;;2280233;55;20960;-69
2023/03/14 12:25:30;;;;;;;2.05;0.60;;;14.10;68.50;;;;;;2280035;55;21958;-69
2023/03/14 12:28:43;;;;;;;1.60;0.57;;;14.10;69.30;;;;;;2280338;55;21457;-69
2023/03/14 12:31:35;;;;;;;2.25;0.65;;;14.10;67.30;;;;;;2280471;55;20946;-69
2023/03/14 12:34:25;;;;;;;2.60;0.80;;;14.20;68.00;;;;;;2513563;54;20965;-68
2023/03/14 12:38:41;;;;;;;1.60;0.70;;;14.10;67.60;;;;;;2279492;55;21088;-69
2023/03/14 12:48:19;;;;;;;2.17;0.70;;;14.20;67.30;;;;;;2513702;54;21010;-71
2023/03/14 12:50:56;;;;;;;2.05;0.65;;;14.10;67.30;;;;;;2512562;54;20938;-68
2023/03/14 13:00:26;;;;;;;1.70;0.68;;;14.10;68.30;;;;;;2278984;55;20961;-69
2023/03/14 13:03:18;;;;;;;2.25;0.65;;;14.10;67.90;;;;;;2279271;55;21092;-66
2023/03/14 13:06:03;;;;;;;1.62;0.57;;;14.00;68.50;;;;;;2513300;54;21483;-67
2023/03/14 13:08:38;;;;;;;3.00;1.00;;;14.00;67.80;;;;;;2511797;54;20935;-69
2023/03/14 13:11:27;;;;;;;5.75;2.53;;;13.90;67.70;;;;;;2279353;55;20973;-66
2023/03/14 13:13:56;;;;;;;4.60;1.87;;;13.90;66.80;;;;;;2513144;54;20970;-67
2023/03/14 13:16:24;;;;;;;11.02;3.30;;;13.80;67.80;;;;;;2512393;54;20994;-70
2023/03/14 13:19:22;;;;;;;5.47;2.50;;;13.80;68.00;;;;;;2512852;54;22054;-68
2023/03/14 13:21:48;;;;;;;4.40;2.20;;;13.80;66.40;;;;;;2279457;55;21081;-66
2023/03/14 13:24:22;;;;;;;3.95;1.30;;;13.70;67.80;;;;;;2513296;54;20934;-68
2023/03/14 13:26:51;;;;;;;4.85;2.12;;;13.70;66.90;;;;;;2279557;55;20973;-68
2023/03/14 13:29:24;;;;;;;3.92;2.08;;;13.70;67.50;;;;;;2512123;54;20974;-68
2023/03/14 13:31:58;;;;;;;6.30;1.60;;;13.60;67.50;;;;;;2512641;54;21069;-68
2023/03/14 13:34:32;;;;;;;3.92;1.27;;;13.60;67.40;;;;;;2279247;55;21487;-68
2023/03/14 13:36:59;;;;;;;3.10;1.50;;;13.60;66.70;;;;;;2512235;54;21410;-68
2023/03/14 13:39:28;;;;;;;2.83;1.55;;;13.60;67.60;;;;;;2277892;55;20938;-68